createdAt,value
2024-05-09T00:00:00.179Z,13.1
2024-05-09T00:01:09.901Z,13.1
2024-05-09T00:02:01.208Z,13.1
2024-05-09T00:03:00.061Z,13.1
2024-05-09T00:03:59.856Z,13.1
2024-05-09T00:05:01.384Z,13
2024-05-09T00:06:12.190Z,13
2024-05-09T00:07:00.144Z,13
2024-05-09T00:07:59.171Z,13
2024-05-09T00:09:01.214Z,13
2024-05-09T00:09:59.756Z,13
2024-05-09T00:11:16.519Z,12.9
2024-05-09T00:12:01.401Z,12.9
2024-05-09T00:13:01.149Z,12.8
2024-05-09T00:14:05.469Z,12.8
2024-05-09T00:14:59.900Z,12.8
2024-05-09T00:16:01.259Z,12.8
2024-05-09T00:17:00.060Z,12.8
2024-05-09T00:17:58.942Z,12.8
2024-05-09T00:18:59.804Z,12.8
2024-05-09T00:20:01.419Z,12.8
2024-05-09T00:21:01.471Z,12.8
2024-05-09T00:22:00.237Z,12.8
2024-05-09T00:22:58.931Z,12.7
2024-05-09T00:23:59.691Z,12.7
2024-05-09T00:25:01.204Z,12.7
2024-05-09T00:26:00.014Z,12.6
2024-05-09T00:26:58.711Z,12.6
2024-05-09T00:28:01.240Z,12.6
2024-05-09T00:29:00.024Z,12.6
2024-05-09T00:29:58.683Z,12.6
2024-05-09T00:31:01.193Z,12.6
2024-05-09T00:32:00.076Z,12.6
2024-05-09T00:32:59.003Z,12.6
2024-05-09T00:33:59.829Z,12.6
2024-05-09T00:35:01.253Z,12.6
2024-05-09T00:36:00.008Z,12.6
2024-05-09T00:36:58.808Z,12.6
2024-05-09T00:38:01.436Z,12.6
2024-05-09T00:39:01.245Z,12.6
2024-05-09T00:40:00.054Z,12.6
2024-05-09T00:40:58.729Z,12.6
2024-05-09T00:42:01.207Z,12.5
2024-05-09T00:42:59.877Z,12.5
2024-05-09T00:44:01.248Z,12.5
2024-05-09T00:44:59.976Z,12.5
2024-05-09T00:45:58.764Z,12.4
2024-05-09T00:47:01.235Z,12.4
2024-05-09T00:48:00.631Z,12.4
2024-05-09T00:48:59.576Z,12.3
2024-05-09T00:50:01.259Z,12.3
2024-05-09T00:51:00.151Z,12.2
2024-05-09T00:51:58.892Z,12.1
2024-05-09T00:53:01.263Z,12.1
2024-05-09T00:54:00.053Z,12.1
2024-05-09T00:54:58.713Z,12.1
2024-05-09T00:56:01.295Z,12.1
2024-05-09T00:56:59.970Z,12.1
2024-05-09T00:57:58.675Z,12.1
2024-05-09T00:59:01.244Z,12.1
2024-05-09T00:59:59.985Z,12.1
2024-05-09T01:00:58.818Z,12.1
2024-05-09T01:02:01.342Z,12.1
2024-05-09T01:02:59.894Z,12.1
2024-05-09T01:03:58.884Z,12.1
2024-05-09T01:05:01.391Z,12.1
2024-05-09T01:06:01.285Z,12.1
2024-05-09T01:07:00.030Z,12.1
2024-05-09T01:07:58.772Z,12.1
2024-05-09T01:09:01.171Z,12.1
2024-05-09T01:09:59.963Z,12.2
2024-05-09T01:10:58.864Z,12.1
2024-05-09T01:12:01.413Z,12.1
2024-05-09T01:13:01.225Z,12.2
2024-05-09T01:14:00.009Z,12.2
2024-05-09T01:14:58.812Z,12.1
2024-05-09T01:16:01.294Z,12.1
2024-05-09T01:17:00.003Z,12.1
2024-05-09T01:17:58.988Z,12.1
2024-05-09T01:18:59.897Z,12.1
2024-05-09T01:19:58.707Z,12.1
2024-05-09T01:21:01.367Z,12.1
2024-05-09T01:22:00.025Z,12.1
2024-05-09T01:22:58.835Z,12.1
2024-05-09T01:24:01.216Z,12
2024-05-09T01:24:59.942Z,12
2024-05-09T01:25:58.731Z,12
2024-05-09T01:27:03.439Z,12
2024-05-09T01:28:01.183Z,11.9
2024-05-09T01:28:59.904Z,11.9
2024-05-09T01:29:58.648Z,11.9
2024-05-09T01:31:01.223Z,11.9
2024-05-09T01:32:04.799Z,11.9
2024-05-09T01:33:00.053Z,11.9
2024-05-09T01:33:58.813Z,11.9
2024-05-09T01:35:01.359Z,11.9
2024-05-09T01:36:00.118Z,11.9
2024-05-09T01:37:07.138Z,11.8
2024-05-09T01:38:01.346Z,11.8
2024-05-09T01:39:00.151Z,11.9
2024-05-09T01:39:58.915Z,11.9
2024-05-09T01:41:01.255Z,11.8
2024-05-09T01:42:09.668Z,11.8
2024-05-09T01:43:00.098Z,11.8
2024-05-09T01:43:59.333Z,11.8
2024-05-09T01:45:00.086Z,11.8
2024-05-09T01:45:58.763Z,11.8
2024-05-09T01:47:13.852Z,11.7
2024-05-09T01:48:01.975Z,11.7
2024-05-09T01:48:59.846Z,11.7
2024-05-09T01:50:01.500Z,11.6
2024-05-09T01:51:01.268Z,11.6
2024-05-09T01:52:15.149Z,11.6
2024-05-09T01:53:00.208Z,11.6
2024-05-09T01:53:58.902Z,11.6
2024-05-09T01:55:04.674Z,11.6
2024-05-09T01:56:01.229Z,11.6
2024-05-09T01:56:59.943Z,11.7
2024-05-09T01:57:58.676Z,11.6
2024-05-09T01:59:01.260Z,11.6
2024-05-09T01:59:59.992Z,11.6
2024-05-09T02:00:58.682Z,11.6
2024-05-09T02:02:01.566Z,11.6
2024-05-09T02:03:01.759Z,11.5
2024-05-09T02:04:01.570Z,11.5
2024-05-09T02:04:59.965Z,11.5
2024-05-09T02:05:58.974Z,11.5
2024-05-09T02:06:59.726Z,11.5
2024-05-09T02:08:01.375Z,11.5
2024-05-09T02:09:00.178Z,11.5
2024-05-09T02:09:58.914Z,11.5
2024-05-09T02:11:01.550Z,11.4
2024-05-09T02:12:01.488Z,11.4
2024-05-09T02:13:01.303Z,11.4
2024-05-09T02:14:00.304Z,11.4
2024-05-09T02:14:59.063Z,11.4
2024-05-09T02:15:59.760Z,11.4
2024-05-09T02:17:01.308Z,11.3
2024-05-09T02:18:00.201Z,11.3
2024-05-09T02:18:59.335Z,11.2
2024-05-09T02:20:00.265Z,11.2
2024-05-09T02:20:59.092Z,11.3
2024-05-09T02:21:59.818Z,11.3
2024-05-09T02:23:01.290Z,11.3
2024-05-09T02:24:00.052Z,11.3
2024-05-09T02:24:59.090Z,11.3
2024-05-09T02:25:59.844Z,11.2
2024-05-09T02:27:02.617Z,11.2
2024-05-09T02:28:01.232Z,11.1
2024-05-09T02:29:00.010Z,11.1
2024-05-09T02:29:58.751Z,11.1
2024-05-09T02:31:01.192Z,11.1
2024-05-09T02:32:00.102Z,11.1
2024-05-09T02:32:59.381Z,11
2024-05-09T02:34:00.351Z,11
2024-05-09T02:34:59.205Z,11
2024-05-09T02:36:00.130Z,11
2024-05-09T02:36:58.790Z,11
2024-05-09T02:38:01.519Z,10.9
2024-05-09T02:39:00.235Z,10.9
2024-05-09T02:39:58.899Z,10.9
2024-05-09T02:41:01.220Z,10.9
2024-05-09T02:41:59.942Z,10.9
2024-05-09T02:42:58.630Z,10.9
2024-05-09T02:44:01.328Z,10.9
2024-05-09T02:45:00.145Z,10.9
2024-05-09T02:45:58.944Z,10.9
2024-05-09T02:46:59.685Z,10.9
2024-05-09T02:48:01.962Z,11
2024-05-09T02:49:01.737Z,11
2024-05-09T02:50:01.265Z,11
2024-05-09T02:51:00.191Z,11
2024-05-09T02:51:59.000Z,11
2024-05-09T02:52:59.708Z,10.9
2024-05-09T02:54:01.210Z,10.8
2024-05-09T02:54:59.915Z,10.8
2024-05-09T02:56:01.277Z,10.8
2024-05-09T02:57:01.149Z,10.8
2024-05-09T02:57:59.853Z,10.8
2024-05-09T02:59:01.288Z,10.8
2024-05-09T02:59:59.975Z,10.8
2024-05-09T03:00:58.758Z,10.8
2024-05-09T03:02:01.423Z,10.7
2024-05-09T03:03:01.419Z,10.7
2024-05-09T03:04:00.330Z,10.7
2024-05-09T03:04:59.094Z,10.7
2024-05-09T03:05:59.806Z,10.7
2024-05-09T03:07:01.230Z,10.7
2024-05-09T03:08:03.429Z,10.8
2024-05-09T03:08:59.915Z,10.8
2024-05-09T03:10:01.208Z,10.8
2024-05-09T03:10:59.961Z,10.7
2024-05-09T03:11:58.834Z,10.7
2024-05-09T03:13:05.716Z,10.6
2024-05-09T03:14:01.644Z,10.6
2024-05-09T03:15:01.230Z,10.6
2024-05-09T03:15:59.994Z,10.6
2024-05-09T03:16:58.772Z,10.6
2024-05-09T03:18:09.540Z,10.6
2024-05-09T03:19:01.240Z,10.6
2024-05-09T03:20:00.140Z,10.6
2024-05-09T03:20:58.953Z,10.6
2024-05-09T03:21:59.688Z,10.6
2024-05-09T03:23:11.586Z,10.6
2024-05-09T03:24:01.183Z,10.6
2024-05-09T03:24:59.919Z,10.6
2024-05-09T03:26:01.391Z,10.6
2024-05-09T03:27:00.145Z,10.7
2024-05-09T03:28:12.938Z,10.6
2024-05-09T03:28:59.857Z,10.6
2024-05-09T03:30:01.215Z,10.6
2024-05-09T03:30:59.893Z,10.6
2024-05-09T03:32:01.393Z,10.6
2024-05-09T03:33:15.976Z,10.6
2024-05-09T03:33:59.883Z,10.6
2024-05-09T03:34:58.728Z,10.6
2024-05-09T03:36:01.236Z,10.5
2024-05-09T03:36:59.991Z,10.5
2024-05-09T03:37:58.739Z,10.5
2024-05-09T03:39:01.189Z,10.5
2024-05-09T03:40:01.204Z,10.5
2024-05-09T03:40:59.972Z,10.5
2024-05-09T03:41:58.695Z,10.5
2024-05-09T03:43:01.242Z,10.4
2024-05-09T03:44:00.026Z,10.4
2024-05-09T03:44:58.714Z,10.3
2024-05-09T03:46:01.207Z,10.3
2024-05-09T03:46:59.919Z,10.3
2024-05-09T03:47:58.958Z,10.3
2024-05-09T03:49:01.266Z,10.3
2024-05-09T03:49:59.840Z,10.3
2024-05-09T03:51:01.285Z,10.3
2024-05-09T03:51:59.969Z,10.3
2024-05-09T03:52:58.692Z,10.3
2024-05-09T03:54:01.160Z,10.3
2024-05-09T03:54:59.817Z,10.3
2024-05-09T03:56:01.327Z,10.3
2024-05-09T03:57:00.025Z,10.4
2024-05-09T03:57:58.845Z,10.4
2024-05-09T03:58:59.633Z,10.4
2024-05-09T04:00:01.167Z,10.5
2024-05-09T04:01:00.000Z,10.5
2024-05-09T04:01:58.835Z,10.5
2024-05-09T04:03:01.558Z,10.6
2024-05-09T04:04:01.291Z,10.6
2024-05-09T04:05:00.004Z,10.6
2024-05-09T04:05:58.685Z,10.6
2024-05-09T04:07:01.213Z,10.6
2024-05-09T04:07:59.972Z,10.6
2024-05-09T04:08:59.691Z,10.6
2024-05-09T04:10:01.160Z,10.7
2024-05-09T04:10:59.954Z,10.6
2024-05-09T04:11:58.846Z,10.7
2024-05-09T04:12:59.733Z,10.7
2024-05-09T04:14:01.269Z,10.7
2024-05-09T04:14:59.950Z,10.7
2024-05-09T04:15:59.007Z,10.7
2024-05-09T04:16:59.831Z,10.8
2024-05-09T04:18:02.143Z,10.8
2024-05-09T04:19:01.373Z,10.9
2024-05-09T04:20:00.397Z,11
2024-05-09T04:20:59.262Z,11
2024-05-09T04:21:59.930Z,11.1
2024-05-09T04:23:01.259Z,11.1
2024-05-09T04:24:00.059Z,11.1
2024-05-09T04:24:58.796Z,11.1
2024-05-09T04:26:01.276Z,11.2
2024-05-09T04:27:00.127Z,11.2
2024-05-09T04:27:58.808Z,11.2
2024-05-09T04:29:01.762Z,11.1
2024-05-09T04:30:01.293Z,11.2
2024-05-09T04:31:00.067Z,11.2
2024-05-09T04:31:58.852Z,11.2
2024-05-09T04:32:59.807Z,11.3
2024-05-09T04:33:58.777Z,11.3
2024-05-09T04:35:01.258Z,11.4
2024-05-09T04:36:00.098Z,11.5
2024-05-09T04:36:58.767Z,11.5
2024-05-09T04:38:01.380Z,11.5
2024-05-09T04:39:00.093Z,11.5
2024-05-09T04:39:58.767Z,11.5
2024-05-09T04:41:01.229Z,11.5
2024-05-09T04:41:59.918Z,11.5
2024-05-09T04:43:01.244Z,11.6
2024-05-09T04:44:00.012Z,11.6
2024-05-09T04:44:58.943Z,11.6
2024-05-09T04:45:59.639Z,11.6
2024-05-09T04:47:01.263Z,11.7
2024-05-09T04:48:00.467Z,11.7
2024-05-09T04:48:59.627Z,11.7
2024-05-09T04:50:01.255Z,11.8
2024-05-09T04:51:01.223Z,11.8
2024-05-09T04:52:01.218Z,11.8
2024-05-09T04:53:00.036Z,11.9
2024-05-09T04:54:01.638Z,11.9
2024-05-09T04:54:59.710Z,11.9
2024-05-09T04:56:01.319Z,12
2024-05-09T04:57:00.102Z,12
2024-05-09T04:57:58.827Z,12
2024-05-09T04:59:03.616Z,12
2024-05-09T05:00:01.185Z,12
2024-05-09T05:00:59.963Z,12.1
2024-05-09T05:01:58.831Z,12.1
2024-05-09T05:03:01.464Z,12.1
2024-05-09T05:04:03.103Z,12.1
2024-05-09T05:05:01.339Z,12.2
2024-05-09T05:06:00.112Z,12.3
2024-05-09T05:07:02.147Z,12.3
2024-05-09T05:08:01.222Z,12.5
2024-05-09T05:09:05.664Z,12.5
2024-05-09T05:09:59.803Z,12.7
2024-05-09T05:11:01.253Z,12.8
2024-05-09T05:11:59.863Z,13
2024-05-09T05:12:58.702Z,13.1
2024-05-09T05:14:09.934Z,13.4
2024-05-09T05:15:01.179Z,13.5
2024-05-09T05:15:59.780Z,13.5
2024-05-09T05:17:01.262Z,13.6
2024-05-09T05:18:00.180Z,13.7
2024-05-09T05:19:13.509Z,13.9
2024-05-09T05:20:00.081Z,14.1
2024-05-09T05:20:59.057Z,14.4
2024-05-09T05:21:59.961Z,14.5
2024-05-09T05:22:58.677Z,14.7
2024-05-09T05:24:15.632Z,14.9
2024-05-09T05:25:01.154Z,15
2024-05-09T05:25:59.957Z,15.2
2024-05-09T05:26:58.694Z,15.5
2024-05-09T05:28:01.269Z,15.7
2024-05-09T05:28:59.980Z,15.9
2024-05-09T05:29:58.719Z,16.1
2024-05-09T05:31:01.366Z,16.3
2024-05-09T05:32:00.278Z,16.3
2024-05-09T05:32:59.049Z,16.5
2024-05-09T05:33:59.894Z,16.6
2024-05-09T05:34:58.706Z,16.7
2024-05-09T05:36:01.189Z,16.8
2024-05-09T05:37:00.154Z,16.8
2024-05-09T05:37:58.957Z,17
2024-05-09T05:38:59.630Z,17.1
2024-05-09T05:40:01.238Z,17.1
2024-05-09T05:40:59.994Z,17.3
2024-05-09T05:41:58.708Z,17.4
2024-05-09T05:43:01.258Z,17.4
2024-05-09T05:43:59.981Z,17.4
2024-05-09T05:44:59.010Z,17.5
2024-05-09T05:45:59.750Z,17.5
2024-05-09T05:47:01.414Z,17.6
2024-05-09T05:48:00.508Z,17.7
2024-05-09T05:48:59.513Z,17.9
2024-05-09T05:50:01.380Z,18
2024-05-09T05:51:04.180Z,18.3
2024-05-09T05:52:01.214Z,18.4
2024-05-09T05:52:59.987Z,18.5
2024-05-09T05:53:58.697Z,18.5
2024-05-09T05:55:01.178Z,18.5
2024-05-09T05:56:00.004Z,18.6
2024-05-09T05:56:58.809Z,18.7
2024-05-09T05:58:01.188Z,18.9
2024-05-09T05:58:59.885Z,19
2024-05-09T06:00:04.140Z,19.1
2024-05-09T06:01:01.318Z,19.1
2024-05-09T06:02:00.098Z,19.2
2024-05-09T06:02:59.379Z,19.3
2024-05-09T06:04:00.255Z,19.4
2024-05-09T06:04:59.115Z,19.5
2024-05-09T06:06:00.042Z,19.5
2024-05-09T06:06:58.855Z,19.5
2024-05-09T06:08:01.269Z,19.4
2024-05-09T06:08:59.986Z,19.4
2024-05-09T06:09:58.664Z,19.3
2024-05-09T06:11:01.363Z,19.2
2024-05-09T06:12:00.283Z,19.2
2024-05-09T06:12:59.102Z,19.1
2024-05-09T06:13:59.878Z,19
2024-05-09T06:15:01.163Z,18.9
2024-05-09T06:15:59.827Z,18.8
2024-05-09T06:17:01.225Z,18.8
2024-05-09T06:18:00.262Z,18.8
2024-05-09T06:18:59.341Z,18.7
2024-05-09T06:20:01.191Z,18.6
2024-05-09T06:21:00.011Z,18.6
2024-05-09T06:21:58.763Z,18.5
2024-05-09T06:23:03.246Z,18.5
2024-05-09T06:24:02.574Z,18.3
2024-05-09T06:25:01.182Z,18.1
2024-05-09T06:25:59.980Z,18
2024-05-09T06:26:58.629Z,17.8
2024-05-09T06:28:01.279Z,17.5
2024-05-09T06:29:00.106Z,17.1
2024-05-09T06:29:58.810Z,17
2024-05-09T06:31:01.172Z,16.6
2024-05-09T06:32:00.351Z,16.4
2024-05-09T06:32:59.364Z,16.1
2024-05-09T06:34:00.310Z,15.9
2024-05-09T06:34:59.393Z,15.7
2024-05-09T06:36:00.164Z,15.5
2024-05-09T06:36:58.956Z,15.3
2024-05-09T06:37:59.701Z,15.1
2024-05-09T06:39:01.237Z,15
2024-05-09T06:40:01.168Z,14.9
2024-05-09T06:40:59.966Z,14.8
2024-05-09T06:41:58.681Z,14.8
2024-05-09T06:43:01.248Z,14.7
2024-05-09T06:43:59.979Z,14.6
2024-05-09T06:45:00.220Z,14.6
2024-05-09T06:45:59.007Z,14.6
2024-05-09T06:47:00.240Z,14.6
2024-05-09T06:47:59.491Z,14.6
2024-05-09T06:49:01.490Z,14.6
2024-05-09T06:50:03.536Z,14.6
2024-05-09T06:51:01.298Z,14.6
2024-05-09T06:51:59.973Z,14.6
2024-05-09T06:52:58.776Z,14.6
2024-05-09T06:54:01.218Z,14.5
2024-05-09T06:55:02.826Z,14.5
2024-05-09T06:55:59.971Z,14.5
2024-05-09T06:56:58.737Z,14.5
2024-05-09T06:58:01.196Z,14.5
2024-05-09T06:59:00.064Z,14.5
2024-05-09T07:00:05.066Z,14.5
2024-05-09T07:01:00.058Z,14.5
2024-05-09T07:01:58.798Z,14.5
2024-05-09T07:03:04.755Z,14.5
2024-05-09T07:04:01.483Z,14.5
2024-05-09T07:05:06.408Z,14.5
2024-05-09T07:06:00.105Z,14.5
2024-05-09T07:06:58.744Z,14.5
2024-05-09T07:08:01.238Z,14.6
2024-05-09T07:08:59.921Z,14.6
2024-05-09T07:10:14.962Z,14.6
2024-05-09T07:11:01.372Z,14.7
2024-05-09T07:12:01.340Z,14.7
2024-05-09T07:13:00.127Z,14.7
2024-05-09T07:13:58.861Z,14.7
2024-05-09T07:15:13.205Z,14.6
2024-05-09T07:16:01.227Z,14.6
2024-05-09T07:17:00.066Z,14.6
2024-05-09T07:17:59.087Z,14.6
2024-05-09T07:19:00.018Z,14.6
2024-05-09T07:20:22.898Z,14.6
2024-05-09T07:20:59.778Z,14.6
2024-05-09T07:22:01.202Z,14.6
2024-05-09T07:22:59.916Z,14.6
2024-05-09T07:24:02.658Z,14.6
2024-05-09T07:25:15.930Z,14.6
2024-05-09T07:26:01.288Z,14.6
2024-05-09T07:26:59.991Z,14.6
2024-05-09T07:27:58.679Z,14.7
2024-05-09T07:29:01.270Z,14.7
2024-05-09T07:29:59.915Z,14.7
2024-05-09T07:31:01.268Z,14.7
2024-05-09T07:31:59.989Z,14.6
2024-05-09T07:32:59.030Z,14.6
2024-05-09T07:33:59.905Z,14.6
2024-05-09T07:34:58.753Z,14.6
2024-05-09T07:36:01.182Z,14.6
2024-05-09T07:36:59.864Z,14.6
2024-05-09T07:38:01.351Z,14.7
2024-05-09T07:39:00.051Z,14.8
2024-05-09T07:39:58.700Z,14.8
2024-05-09T07:41:01.267Z,14.8
2024-05-09T07:42:01.187Z,14.8
2024-05-09T07:43:00.005Z,14.8
2024-05-09T07:43:58.809Z,14.9
2024-05-09T07:45:21.069Z,14.8
2024-05-09T07:46:37.851Z,14.8
2024-05-09T07:50:35.818Z,14.9
2024-05-09T07:51:48.172Z,15
2024-05-09T07:53:07.617Z,15
2024-05-09T07:53:22.111Z,15
2024-05-09T07:53:35.766Z,15
2024-05-09T07:54:01.308Z,15
2024-05-09T07:55:01.585Z,15.1
2024-05-09T07:56:01.544Z,15
2024-05-09T07:57:01.277Z,15
2024-05-09T07:58:00.052Z,15
2024-05-09T07:58:58.818Z,15
2024-05-09T08:00:01.213Z,15.1
2024-05-09T08:01:00.017Z,15.1
2024-05-09T08:01:58.932Z,15.1
2024-05-09T08:02:59.756Z,15.1
2024-05-09T08:04:01.288Z,15.1
2024-05-09T08:05:00.155Z,15.2
2024-05-09T08:05:59.041Z,15.2
2024-05-09T08:06:59.865Z,15.2
2024-05-09T08:08:01.247Z,15.2
2024-05-09T08:09:05.142Z,15.2
2024-05-09T08:09:59.808Z,15.3
2024-05-09T08:11:01.188Z,15.3
2024-05-09T08:11:59.825Z,15.3
2024-05-09T08:13:01.322Z,15.3
2024-05-09T08:14:00.008Z,15.4
2024-05-09T08:14:58.681Z,15.4
2024-05-09T08:16:01.344Z,15.5
2024-05-09T08:17:00.126Z,15.5
2024-05-09T08:17:59.374Z,15.5
2024-05-09T08:19:00.401Z,15.5
2024-05-09T08:19:59.335Z,15.5
2024-05-09T08:21:00.043Z,15.5
2024-05-09T08:21:58.729Z,15.6
2024-05-09T08:23:01.247Z,15.6
2024-05-09T08:23:59.982Z,15.7
2024-05-09T08:24:58.796Z,15.7
2024-05-09T08:26:01.221Z,15.8
2024-05-09T08:26:59.900Z,15.9
2024-05-09T08:28:01.350Z,15.9
2024-05-09T08:29:01.182Z,15.9
2024-05-09T08:29:59.924Z,15.8
2024-05-09T08:30:58.827Z,15.8
2024-05-09T08:32:00.029Z,15.8
2024-05-09T08:32:59.412Z,15.8
2024-05-09T08:34:00.364Z,15.9
2024-05-09T08:34:59.184Z,16
2024-05-09T08:35:59.969Z,16.1
2024-05-09T08:37:03.741Z,16.1
2024-05-09T08:38:01.348Z,16.2
2024-05-09T08:39:00.195Z,16.3
2024-05-09T08:39:58.964Z,16.3
2024-05-09T08:40:59.683Z,16.3
2024-05-09T08:42:01.249Z,16.3
2024-05-09T08:43:02.452Z,16.4
2024-05-09T08:44:00.002Z,16.3
2024-05-09T08:44:58.853Z,16.4
2024-05-09T08:46:01.280Z,16.5
2024-05-09T08:47:00.208Z,16.5
2024-05-09T08:47:59.081Z,16.5
2024-05-09T08:49:00.069Z,16.4
2024-05-09T08:49:59.023Z,16.4
2024-05-09T08:51:04.532Z,16.4
2024-05-09T08:52:00.191Z,16.3
2024-05-09T08:52:58.936Z,16.3
2024-05-09T08:53:59.765Z,16.4
2024-05-09T08:55:01.246Z,16.4
2024-05-09T08:56:06.388Z,16.4
2024-05-09T08:56:59.982Z,16.4
2024-05-09T08:57:58.725Z,16.5
2024-05-09T08:59:01.186Z,16.5
2024-05-09T08:59:59.935Z,16.5
2024-05-09T09:01:08.972Z,16.5
2024-05-09T09:02:00.076Z,16.6
2024-05-09T09:02:58.899Z,16.6
2024-05-09T09:03:59.958Z,16.6
2024-05-09T09:04:59.030Z,16.6
2024-05-09T09:06:10.865Z,16.6
2024-05-09T09:07:00.389Z,16.6
2024-05-09T09:08:01.218Z,16.6
2024-05-09T09:08:59.983Z,16.6
2024-05-09T09:09:58.811Z,16.7
2024-05-09T09:11:14.086Z,16.7
2024-05-09T09:11:59.916Z,16.7
2024-05-09T09:12:58.764Z,16.7
2024-05-09T09:14:01.172Z,16.6
2024-05-09T09:15:00.166Z,16.6
2024-05-09T09:15:59.517Z,16.6
2024-05-09T09:17:01.431Z,16.6
2024-05-09T09:18:00.741Z,16.6
2024-05-09T09:18:59.884Z,16.6
2024-05-09T09:19:58.784Z,16.6
2024-05-09T09:21:01.168Z,16.6
2024-05-09T09:22:00.051Z,16.6
2024-05-09T09:22:58.773Z,16.6
2024-05-09T09:24:01.232Z,16.6
2024-05-09T09:24:59.898Z,16.6
2024-05-09T09:25:58.668Z,16.6
2024-05-09T09:27:01.221Z,16.6
2024-05-09T09:28:00.116Z,16.6
2024-05-09T09:28:58.978Z,16.6
2024-05-09T09:29:59.703Z,16.6
2024-05-09T09:31:01.272Z,16.7
2024-05-09T09:32:00.057Z,16.7
2024-05-09T09:32:58.845Z,16.7
2024-05-09T09:33:59.878Z,16.8
2024-05-09T09:34:58.824Z,16.8
2024-05-09T09:36:01.953Z,17
2024-05-09T09:37:01.224Z,17
2024-05-09T09:37:59.997Z,17.1
2024-05-09T09:38:58.684Z,17.1
2024-05-09T09:40:01.236Z,17.1
2024-05-09T09:41:00.225Z,17.1
2024-05-09T09:41:59.072Z,17.1
2024-05-09T09:42:59.755Z,17.2
2024-05-09T09:44:01.209Z,17.2
2024-05-09T09:45:04.886Z,17.2
2024-05-09T09:46:00.260Z,17.2
2024-05-09T09:46:59.066Z,17.1
2024-05-09T09:47:59.962Z,17.1
2024-05-09T09:48:58.900Z,17.1
2024-05-09T09:49:59.995Z,17.1
2024-05-09T09:50:58.737Z,17
2024-05-09T09:52:01.721Z,17
2024-05-09T09:53:01.155Z,17
2024-05-09T09:53:59.858Z,17
2024-05-09T09:55:01.215Z,17
2024-05-09T09:56:00.009Z,17
2024-05-09T09:56:58.762Z,17.1
2024-05-09T09:58:01.235Z,17.1
2024-05-09T09:59:01.195Z,17.2
2024-05-09T10:00:01.228Z,17.3
2024-05-09T10:01:00.046Z,17.3
2024-05-09T10:01:59.028Z,17.3
2024-05-09T10:03:00.019Z,17.3
2024-05-09T10:03:59.072Z,17.4
2024-05-09T10:05:00.013Z,17.5
2024-05-09T10:05:58.887Z,17.5
2024-05-09T10:06:59.656Z,17.5
2024-05-09T10:08:01.237Z,17.6
2024-05-09T10:08:59.976Z,17.6
2024-05-09T10:09:58.667Z,17.6
2024-05-09T10:11:01.350Z,17.6
2024-05-09T10:12:00.657Z,17.6
2024-05-09T10:12:59.760Z,17.7
2024-05-09T10:14:01.254Z,17.7
2024-05-09T10:15:00.010Z,17.8
2024-05-09T10:15:58.834Z,17.8
2024-05-09T10:17:01.251Z,17.7
2024-05-09T10:18:00.133Z,17.7
2024-05-09T10:18:59.043Z,17.6
2024-05-09T10:19:59.885Z,17.6
2024-05-09T10:20:58.708Z,17.7
2024-05-09T10:22:01.332Z,17.8
2024-05-09T10:23:00.025Z,17.8
2024-05-09T10:23:58.720Z,17.8
2024-05-09T10:25:02.770Z,17.9
2024-05-09T10:26:01.305Z,18
2024-05-09T10:27:00.072Z,18
2024-05-09T10:27:58.925Z,18
2024-05-09T10:28:59.786Z,18
2024-05-09T10:30:01.258Z,18.1
2024-05-09T10:31:00.020Z,18.1
2024-05-09T10:31:58.783Z,18.1
2024-05-09T10:33:01.349Z,18.1
2024-05-09T10:34:00.506Z,18.1
2024-05-09T10:34:59.576Z,18.1
2024-05-09T10:36:01.154Z,18
2024-05-09T10:37:02.822Z,18
2024-05-09T10:38:01.211Z,17.9
2024-05-09T10:38:59.881Z,17.9
2024-05-09T10:40:01.237Z,17.9
2024-05-09T10:40:59.989Z,17.9
2024-05-09T10:42:04.123Z,18
2024-05-09T10:43:02.554Z,18
2024-05-09T10:44:01.244Z,18
2024-05-09T10:44:59.996Z,18.1
2024-05-09T10:45:58.690Z,18
2024-05-09T10:47:06.479Z,18.1
2024-05-09T10:48:01.499Z,18.1
2024-05-09T10:49:03.323Z,18.1
2024-05-09T10:50:01.268Z,18.1
2024-05-09T10:51:00.031Z,18.1
2024-05-09T10:52:09.192Z,18.1
2024-05-09T10:53:00.028Z,18.1
2024-05-09T10:53:58.731Z,18.2
2024-05-09T10:55:03.076Z,18.3
2024-05-09T10:56:01.294Z,18.3
2024-05-09T10:57:10.846Z,18.3
2024-05-09T10:57:59.835Z,18.3
2024-05-09T10:59:01.180Z,18.3
2024-05-09T10:59:59.821Z,18.3
2024-05-09T11:01:04.333Z,18.3
2024-05-09T11:02:13.184Z,18.3
2024-05-09T11:03:01.253Z,18.4
2024-05-09T11:04:00.182Z,18.4
2024-05-09T11:04:59.271Z,18.4
2024-05-09T11:06:00.072Z,18.4
2024-05-09T11:07:14.316Z,18.3
2024-05-09T11:07:59.744Z,18.3
2024-05-09T11:09:01.341Z,18.3
2024-05-09T11:10:00.000Z,18.3
2024-05-09T11:10:58.770Z,18.3
2024-05-09T11:12:01.316Z,18.3
2024-05-09T11:13:00.142Z,18.3
2024-05-09T11:13:59.083Z,18.4
2024-05-09T11:15:01.220Z,18.5
2024-05-09T11:16:00.404Z,18.5
2024-05-09T11:16:59.196Z,18.6
2024-05-09T11:18:00.013Z,18.6
2024-05-09T11:18:59.279Z,18.7
2024-05-09T11:20:00.277Z,18.8
2024-05-09T11:20:59.105Z,18.8
2024-05-09T11:21:59.880Z,18.8
2024-05-09T11:23:01.200Z,18.9
2024-05-09T11:24:01.223Z,18.9
2024-05-09T11:25:01.271Z,18.9
2024-05-09T11:25:59.809Z,18.8
2024-05-09T11:27:01.186Z,18.8
2024-05-09T11:27:59.914Z,18.8
2024-05-09T11:28:58.605Z,18.8
2024-05-09T11:30:01.177Z,18.8
2024-05-09T11:31:00.130Z,18.8
2024-05-09T11:31:58.840Z,18.8
2024-05-09T11:33:01.588Z,18.8
2024-05-09T11:34:00.124Z,18.8
2024-05-09T11:34:58.898Z,18.8
2024-05-09T11:36:01.194Z,18.8
2024-05-09T11:36:59.969Z,18.8
2024-05-09T11:37:58.720Z,18.8
2024-05-09T11:39:01.168Z,18.9
2024-05-09T11:39:59.898Z,18.9
2024-05-09T11:40:59.028Z,18.9
2024-05-09T11:41:59.806Z,18.9
2024-05-09T11:43:01.543Z,19
2024-05-09T11:44:01.165Z,19
2024-05-09T11:44:59.877Z,19
2024-05-09T11:46:01.377Z,19.1
2024-05-09T11:47:00.042Z,19.1
2024-05-09T11:47:59.298Z,19.1
2024-05-09T11:49:00.275Z,19.1
2024-05-09T11:49:59.743Z,19.1
2024-05-09T11:51:02.075Z,19
2024-05-09T11:52:00.167Z,19
2024-05-09T11:52:58.911Z,19
2024-05-09T11:54:01.169Z,19
2024-05-09T11:54:59.871Z,19
2024-05-09T11:56:01.235Z,19
2024-05-09T11:56:59.981Z,19
2024-05-09T11:57:58.957Z,19.1
2024-05-09T11:58:59.667Z,19.1
2024-05-09T12:00:01.201Z,19.2
2024-05-09T12:00:59.991Z,19.2
2024-05-09T12:01:58.839Z,19.2
2024-05-09T12:03:01.291Z,19.1
2024-05-09T12:04:01.621Z,19.1
2024-05-09T12:05:01.326Z,19.1
2024-05-09T12:06:00.200Z,19.2
2024-05-09T12:06:59.253Z,19.2
2024-05-09T12:07:59.926Z,19.2
2024-05-09T12:08:58.613Z,19.3
2024-05-09T12:10:01.349Z,19.3
2024-05-09T12:11:00.411Z,19.4
2024-05-09T12:11:59.352Z,19.4
2024-05-09T12:13:00.038Z,19.4
2024-05-09T12:13:58.843Z,19.4
2024-05-09T12:15:01.230Z,19.4
2024-05-09T12:15:59.946Z,19.4
2024-05-09T12:16:58.684Z,19.5
2024-05-09T12:18:03.661Z,19.5
2024-05-09T12:19:01.481Z,19.5
2024-05-09T12:20:00.043Z,19.5
2024-05-09T12:20:58.789Z,19.6
2024-05-09T12:22:01.230Z,19.6
2024-05-09T12:22:59.933Z,19.6
2024-05-09T12:24:01.214Z,19.6
2024-05-09T12:24:59.961Z,19.6
2024-05-09T12:25:58.764Z,19.6
2024-05-09T12:27:01.171Z,19.7
2024-05-09T12:28:01.439Z,19.6
2024-05-09T12:28:59.876Z,19.5
2024-05-09T12:30:01.166Z,19.5
2024-05-09T12:30:59.885Z,19.5
2024-05-09T12:32:01.251Z,19.5
2024-05-09T12:33:05.170Z,19.6
2024-05-09T12:34:01.338Z,19.6
2024-05-09T12:35:01.178Z,19.6
2024-05-09T12:35:59.970Z,19.6
2024-05-09T12:36:58.739Z,19.6
2024-05-09T12:38:07.526Z,19.6
2024-05-09T12:39:01.186Z,19.6
2024-05-09T12:39:59.895Z,19.6
2024-05-09T12:40:58.880Z,19.6
2024-05-09T12:41:59.660Z,19.6
2024-05-09T12:43:09.416Z,19.6
2024-05-09T12:44:01.197Z,19.6
2024-05-09T12:44:59.885Z,19.6
2024-05-09T12:46:01.478Z,19.7
2024-05-09T12:47:01.182Z,19.7
2024-05-09T12:48:10.439Z,19.7
2024-05-09T12:49:00.178Z,19.6
2024-05-09T12:49:59.092Z,19.5
2024-05-09T12:50:59.823Z,19.5
2024-05-09T12:52:01.226Z,19.5
2024-05-09T12:53:13.113Z,19.5
2024-05-09T12:53:59.726Z,19.5
2024-05-09T12:55:01.353Z,19.6
2024-05-09T12:56:02.439Z,19.6
2024-05-09T12:57:01.199Z,19.6
2024-05-09T12:57:59.972Z,19.5
2024-05-09T12:58:58.659Z,19.4
2024-05-09T13:00:01.212Z,19.5
2024-05-09T13:01:00.074Z,19.5
2024-05-09T13:02:01.029Z,19.5
2024-05-09T13:02:59.993Z,19.6
2024-05-09T13:03:59.132Z,19.6
2024-05-09T13:05:00.029Z,19.6
2024-05-09T13:05:58.908Z,19.7
2024-05-09T13:06:59.656Z,19.7
2024-05-09T13:08:01.242Z,19.7
2024-05-09T13:08:59.931Z,19.7
2024-05-09T13:09:58.720Z,19.6
2024-05-09T13:11:01.597Z,19.6
2024-05-09T13:11:59.976Z,19.5
2024-05-09T13:12:58.866Z,19.3
2024-05-09T13:14:01.353Z,19.3
2024-05-09T13:15:00.100Z,19.2
2024-05-09T13:15:58.963Z,19.2
2024-05-09T13:16:59.713Z,19.2
2024-05-09T13:18:03.209Z,19.2
2024-05-09T13:19:01.234Z,19.1
2024-05-09T13:19:59.924Z,19.2
2024-05-09T13:21:02.701Z,19.2
2024-05-09T13:22:01.364Z,19.3
2024-05-09T13:23:00.146Z,19.3
2024-05-09T13:24:00.454Z,19.3
2024-05-09T13:24:59.396Z,19.3